Notice: Undefined index: language in /home/spanairv/public_html/vam/index.php on line 25
Spanair Virtual

 INFORMACIÓN METAR y TAF
METAR FOR LIPZ
ADDS - METARS form results

(0036 UTC 25 April 2018)
Data provider http://aviationweather.gov/adds/metars/
 
METAR text: LIPZ 250020Z 01004KT 5000 BR NSC 16/15 Q1016 BECMG 2500 BR
Conditions at: LIPZ (VENEZIA/TESSERA , IT) observed 0020 UTC 25 April 2018
Temperature: 16.0°C (61°F)
Dewpoint: 15.0°C (59°F) [RH = 94%]
Pressure (altimeter): 30.00 inches Hg (1016.0 mb)
Winds: from the N (10 degrees) at 5 MPH (4 knots; 2.1 m/s)
Visibility: 3 miles (5 km)
Ceiling: at least 12,000 feet AGL
Clouds: sky clear below 12,000 feet AGL
Weather: BR  (mist)

METAR text: LIPZ 242350Z 02006KT 5000 BR NSC 16/15 Q1016 BECMG 2500 BR
Conditions at: LIPZ (VENEZIA/TESSERA , IT) observed 2350 UTC 24 April 2018
Temperature: 16.0°C (61°F)
Dewpoint: 15.0°C (59°F) [RH = 94%]
Pressure (altimeter): 30.00 inches Hg (1016.0 mb)
Winds: from the NNE (20 degrees) at 7 MPH (6 knots; 3.1 m/s)
Visibility: 3 miles (5 km)
Ceiling: at least 12,000 feet AGL
Clouds: sky clear below 12,000 feet AGL
Weather: BR  (mist)

Forecast for: LIPZ (VENEZIA/TESSERA , IT)
Text: TAF LIPZ 242300Z 2500/2606 VRB05KT 4000 BR NSC
Forecast period: 0000 to 0600 UTC 25 April 2018
Forecast type: FROM: standard forecast or significant change
Winds: variable direction winds at 6 MPH (5 knots; 2.6 m/s)
Visibility: 2.49 miles (4.01 km)
Clouds: not forecast
Weather: BR  (mist)
Forecast for: LIPZ (VENEZIA/TESSERA , IT)
Text: TAF LIPZ 242300Z 2500/2606 VRB05KT 4000 BR NSC
Forecast period: 0000 to 0600 UTC 25 April 2018
Forecast type: FROM: standard forecast or significant change
Winds: variable direction winds at 6 MPH (5 knots; 2.6 m/s)
Visibility: 2.49 miles (4.01 km)
Clouds: not forecast
Weather: BR  (mist)
Forecast for: LIPZ (VENEZIA/TESSERA , IT)
Text: TAF LIPZ 242300Z 2500/2606 VRB05KT 4000 BR NSC
Forecast period: 0100 to 0500 UTC 25 April 2018
Forecast type: TEMPORARY: The following changes expected for less than half the time period
Visibility: 0.50 miles (0.80 km)
Clouds: scattered clouds at 800 feet AGL
Weather: FG  (fog)
Forecast for: LIPZ (VENEZIA/TESSERA , IT)
Text: TAF LIPZ 242300Z 2500/2606 VRB05KT 4000 BR NSC
Forecast period: 0100 to 0500 UTC 25 April 2018
Forecast type: TEMPORARY: The following changes expected for less than half the time period
Visibility: 0.50 miles (0.80 km)
Clouds: scattered clouds at 800 feet AGL
Weather: FG  (fog)
Forecast for: LIPZ (VENEZIA/TESSERA , IT)
Text: TAF LIPZ 242300Z 2500/2606 VRB05KT 4000 BR NSC
Forecast period: 0600 to 1100 UTC 25 April 2018
Forecast type: BECOMING: Conditions expected to become as follows by 0800 UTC 25 April 2018
Winds: variable direction winds at 6 MPH (5 knots; 2.6 m/s)
Visibility: 4 miles (7 km)
Weather: BR  (mist)
Forecast for: LIPZ (VENEZIA/TESSERA , IT)
Text: TAF LIPZ 242300Z 2500/2606 VRB05KT 4000 BR NSC
Forecast period: 0600 to 1100 UTC 25 April 2018
Forecast type: BECOMING: Conditions expected to become as follows by 0800 UTC 25 April 2018
Winds: variable direction winds at 6 MPH (5 knots; 2.6 m/s)
Visibility: 4 miles (7 km)
Weather: BR  (mist)
Forecast for: LIPZ (VENEZIA/TESSERA , IT)
Text: TAF LIPZ 242300Z 2500/2606 VRB05KT 4000 BR NSC
Forecast period: 1100 to 1900 UTC 25 April 2018
Forecast type: BECOMING: Conditions expected to become as follows by 1400 UTC 25 April 2018
Winds: from the SSE (150 degrees) at 14 MPH (12 knots; 6.2 m/s)
Visibility: 4 miles (7 km)
Weather: BR  (mist)
Forecast for: LIPZ (VENEZIA/TESSERA , IT)
Text: TAF LIPZ 242300Z 2500/2606 VRB05KT 4000 BR NSC
Forecast period: 1100 to 1900 UTC 25 April 2018
Forecast type: BECOMING: Conditions expected to become as follows by 1400 UTC 25 April 2018
Winds: from the SSE (150 degrees) at 14 MPH (12 knots; 6.2 m/s)
Visibility: 4 miles (7 km)
Weather: BR  (mist)
Forecast for: LIPZ (VENEZIA/TESSERA , IT)
Text: TAF LIPZ 242300Z 2500/2606 VRB05KT 4000 BR NSC
Forecast period: 1900 UTC 25 April 2018 to 0600 UTC 26 April 2018
Forecast type: BECOMING: Conditions expected to become as follows by 2100 UTC 25 April 2018
Winds: variable direction winds at 6 MPH (5 knots; 2.6 m/s)
Visibility: 4 miles (7 km)
Weather: BR  (mist)
Forecast for: LIPZ (VENEZIA/TESSERA , IT)
Text: TAF LIPZ 242300Z 2500/2606 VRB05KT 4000 BR NSC
Forecast period: 1900 UTC 25 April 2018 to 0600 UTC 26 April 2018
Forecast type: BECOMING: Conditions expected to become as follows by 2100 UTC 25 April 2018
Winds: variable direction winds at 6 MPH (5 knots; 2.6 m/s)
Visibility: 4 miles (7 km)
Weather: BR  (mist)
Forecast for: LIPZ (VENEZIA/TESSERA , IT)
Text: TAF LIPZ 242300Z 2500/2606 VRB05KT 4000 BR NSC
Forecast period: 0000 to 0600 UTC 26 April 2018
Forecast type: TEMPORARY: The following changes expected for less than half the time period
Visibility: 2.49 miles (4.01 km)
Weather: BR  (mist)
Forecast for: LIPZ (VENEZIA/TESSERA , IT)
Text: TAF LIPZ 242300Z 2500/2606 VRB05KT 4000 BR NSC
Forecast period: 0000 to 0600 UTC 26 April 2018
Forecast type: TEMPORARY: The following changes expected for less than half the time period
Visibility: 2.49 miles (4.01 km)
Weather: BR  (mist)

 MAPA DE AEROPUERTO

 INFORMACIÓN DE PISTA
Pista 04L Longitud 9121 ft Ancho 148 ft
Elevación 7 ft Umbral desplazado 308 ft Rumbo de pista 42
Pista 22R Longitud 9121 ft Ancho 148 ft
Elevación 7 ft Umbral desplazado 0 ft Rumbo de pista 222
Pista 04R Longitud 10827 ft Ancho 148 ft
Elevación 7 ft Umbral desplazado 0 ft Rumbo de pista 42
Pista 22L Longitud 10827 ft Ancho 148 ft
Elevación 7 ft Umbral desplazado 0 ft Rumbo de pista 222

 FRECUANCIAS DEL AEROPUERTO
Tipo APP Nombre APP Frecuencia 118.9 MHZ
Tipo ATIS Nombre ATIS Frecuencia 122.225 MHZ
Tipo GND Nombre GND Frecuencia 121.7 MHZ
Tipo TWR Nombre TWR Frecuencia 120.2 MHZ

 RADIO AYUDAS DEL AEROPUERTO
Tipo VOR-DME Nombre Tessera Frecuencia 115300 KHZ
Tipo NDB Nombre Venezia Frecuencia 379 KHZ





VAM [v2.6.2]

Normativa | Spanair Virtual © 2017 | Customized by JZ © 2017 for Spanair Virtual